Terminal Aerodrome Forecast
Issued by NWS

Home | Current Version | Previous Version | Text Only | Print | Product List | Glossary On
Versions: 1 2 3 4 5 6 7 8 9 10 11 12 13 14 15 16 17 18 19 20 21 22 23 24 25 26 27 28 29 30 31 32 33 34 35 36 37 38 39 40 41 42
000
FTUS43 KGRB 271300 AAA
TAFRHI
TAF AMD
KRHI 271328Z 2713/2812 32008G14KT P6SM SCT040
      TEMPO 2713/2715 6SM -SHSN BKN025
     FM271500 32010G15KT P6SM FEW030 FEW050
     FM271800 32006KT P6SM SKC
     FM280300 VRB03KT P6SM SCT100=

USA.gov is the U.S. government's official web portal to all federal, state and local government web resources and services.